AirNav   Air Wisconsin pilot careers
 
 360 users online  

N26
(formerly NR08)
Derby Aerodrome
Pinehurst, North Carolina, USA


FAA INFORMATION EFFECTIVE 09 NOVEMBER 2017

Location

FAA Identifier: N26
Lat/Long: 35-08-02.0000N / 079-37-48.0000W
35-08.033333N / 079-37.800000W
35.1338889 / -79.6300000
(estimated)
Elevation: 516 ft. / 157 m (estimated)
From city: 9 miles WSW of PINEHURST, NC
Time zone: UTC -5 (UTC -4 during Daylight Saving Time)
Zip code: 27281

Airport Operations

Airport use: Open to the public
Activation date: 02/2015
Control tower: no
ARTCC: WASHINGTON CENTER
FSS: RALEIGH FLIGHT SERVICE STATION
NOTAMs facility: RDU (NOTAM-D service available)
Attendance: UNATNDD
Wind indicator: yes
Segmented circle: no

Airport Communications

CTAF: 122.9
WX AWOS-3PT at SOP (13 nm NE): 127.575 (910-692-4287)
WX AWOS-3 at RCZ (16 nm SW): 118.775 (910-997-4093)

Nearby radio navigation aids

VOR radial/distance  VOR name  Freq  Var
SDZr206/5.3SANDHILLS VORTAC111.8003W
FAYr287/38.1FAYETTEVILLE VOR/DME108.8004W

 
NDB name  Hdg/Dist  Freq  Var  ID
MACKALL318/9.527806WHFF .... ..-. ..-.
BENNETTSVILLE017/31.223008WBES -... . ...
POPE267/33.633807WPOB .--. --- -...

Airport Services

Fuel available: MOGAS
MOGAS AVAILABLE WITH PRIOR SCHEDULING WITH MGR.
Parking: tiedowns

Runway Information

Runway 5/23

Dimensions: 2600 x 60 ft. / 792 x 18 m
Surface: turf, in good condition
Runway edge markings: RY 5/23 MKD WITH YELLOW CONES
RUNWAY 5  RUNWAY 23
Traffic pattern: leftleft
Markings: nonenone
Obstructions: 50 ft. trees, 112 ft. from runway, 98 ft. left of centerline, 2:1 slope to clear26 ft. bldg, 37 ft. from runway, 68 ft. right of centerline, 1:1 slope to clear

Airport Ownership and Management from official FAA records

Ownership: Privately-owned
Owner: DERBY AERODROME, LLC.
60 FERGUSON RD
PINEHURST, NC 28374
Phone (815) 238-5026
ARPT PHYS ADDRESS: 2054 DERBY RD. ELERBE, NC 28338
Manager: CHARLES PETERSON
60 FERGUSON RD
PINEHURST, NC 28374
Phone 815-451-0347
LARRY GEBLER PHONE 815-238-5026

Airport Operational Statistics

Aircraft based on the field: 5
Single engine airplanes: 5
    
Aircraft operations: avg 58/month *
43% local general aviation
29% transient general aviation
29% military
* for 12-month period ending 17 November 2016

Instrument Procedures

There are no published instrument procedures at N26.

Some nearby airports with instrument procedures:

KHFF - Mackall Army Airfield (9 nm SE)
KSOP - Moore County Airport (13 nm NE)
KRCZ - Richmond County Airport (16 nm SW)
43A - Montgomery County Airport (17 nm NW)
5W4 - P K Airpark (23 nm E)
 
Loc | Ops | Rwys | IFR | FBO | Links
Com | Nav | Svcs | Stats | Notes


 
Aerial photo
WARNING: Photo may not be current or correct
Aerial photo of N26 (Derby Aerodrome)
Photo taken 10-Jan-2016
looking west.

Do you have a better or more recent aerial photo of Derby Aerodrome that you would like to share? If so, please send us your photo.

 
Airport distance calculator
Flying to Derby Aerodrome? Find the distance to fly.

From to N26

Sunrise and sunset
Times for 20-Nov-2017
 Local
(UTC-5)
 Zulu
(UTC)
Morning civil twilight06:3211:32
Sunrise06:5911:59
Sunset17:0922:09
Evening civil twilight17:3622:36

Current date and time
Zulu (UTC)  20-Nov-2017 07:54:14
Local (UTC-5)  20-Nov-2017 02:54:14
 
METAR
KHFF 
9nm SE 
200732Z AUTO 00000KT 10SM CLR M02/M03 A3014 RMK AO2 SLP224 $
KSOP 
12nm NE 
200656Z AUTO 31003KT 10SM CLR M01/M03 A3013 RMK AO2 SLP224 T10111033 FZRANO
KRCZ 
16nm SW 
200720Z AUTO 03004KT 10SM CLR 00/M02 A3013 RMK AO2 T00031020
TAF
KPOB 
30nm E 
200200Z 2002/2108 32006KT 9999 SKC QNH2995INS BECMG 2020/2021 18006KT 9999 SKC QNH3019INS BECMG 2102/2103 19006KT 9999 FEW250 QNH3021INS TX14/2020Z TN02/2010Z
KFBG 
35nm E 
200200Z 2002/2108 32006KT 9999 SKC QNH2995INS BECMG 2020/2021 18006KT 9999 SKC QNH3019INS BECMG 2102/2103 19006KT 9999 FEW250 QNH3021INS TX14/2020Z TN02/2010Z
NOTAMs
Click for the latest NOTAMs
NOTAMs are issued by the DoD/FAA and will open in a separate window not controlled by AirNav.

 

 
 

Would you like to see your business listed on this page?

 If your business provides an interesting product or service to pilots, flight crews, aircraft, or users of the Derby Aerodrome, you should consider listing it here.  To start the listing process, click on the button below
 
Add a business
 

Other Pages about Derby Aerodrome

Update a link
 
Copyright © AirNav, LLC. All rights reserved. Privacy Policy  Contact